Forest Ranch, California
Current Conditions -  °F | °C
As of 7:55 PM on Friday 24 Oct 2014 (Local Time) from KCIC Reporting Station
Clear Clear  
Wind Chill: 70°   Ceiling: Unl
Heat Index: 70°   Visibility: 10mi
Dew Point: 46°   Wind: 8mph
Humidity: 43%   Direction: 120°ESE
Pressure: 29.84"   Gusts: NA
Location:  39.88°N, 121.67°W
Report Text: KCIC 250255Z AUTO 12007KT 10SM CLR 21/08 A2984 RMK AO1
Loading
Personal Weather Stations






























Interactive Weather Map
Tropical Storm Tracking
New forecast layout! Learn more

10-Day Weather Forecast

Advertisements
Track Severe Weather on mobile